createdAt,value
2023-02-09T00:00:44.871Z,102418.88
2023-02-09T00:01:47.200Z,102409.61
2023-02-09T00:02:50.322Z,102405.31
2023-02-09T00:03:53.540Z,102412.05
2023-02-09T00:04:55.731Z,102410.68
2023-02-09T00:06:03.190Z,102411.16
2023-02-09T00:07:05.403Z,102413.13
2023-02-09T00:08:07.329Z,102411.28
2023-02-09T00:09:09.393Z,102403.16
2023-02-09T00:10:12.401Z,102403.16
2023-02-09T00:11:26.833Z,102412.14
2023-02-09T00:12:47.174Z,102406.37
2023-02-09T00:13:49.393Z,102413.30
2023-02-09T00:14:51.614Z,102410.68
2023-02-09T00:16:02.090Z,102409.30
2023-02-09T00:17:05.332Z,102402.30
2023-02-09T00:18:07.551Z,102407.45
2023-02-09T00:19:11.706Z,102404.34
2023-02-09T00:20:14.412Z,102410.48
2023-02-09T00:21:16.632Z,102407.86
2023-02-09T00:22:19.401Z,102404.55
2023-02-09T00:23:21.448Z,102398.70
2023-02-09T00:24:23.865Z,102396.95
2023-02-09T00:25:25.999Z,102400.25
2023-02-09T00:26:28.357Z,102384.65
2023-02-09T00:27:31.783Z,102398.09
2023-02-09T00:28:34.209Z,102393.41
2023-02-09T00:29:36.343Z,102391.48
2023-02-09T00:30:40.801Z,102393.98
2023-02-09T00:31:43.593Z,102388.92
2023-02-09T00:32:46.893Z,102389.48
2023-02-09T00:33:49.936Z,102386.02
2023-02-09T00:34:51.952Z,102387.16
2023-02-09T00:35:54.965Z,102380.15
2023-02-09T00:36:58.352Z,102385.49
2023-02-09T00:38:00.534Z,102389.88
2023-02-09T00:39:03.507Z,102394.95
2023-02-09T00:40:07.301Z,102392.20
2023-02-09T00:41:11.218Z,102388.49
2023-02-09T00:42:13.204Z,102394.88
2023-02-09T00:43:15.179Z,102392.78
2023-02-09T00:44:18.324Z,102399.39
2023-02-09T00:45:21.006Z,102397.63
2023-02-09T00:46:23.745Z,102397.41
2023-02-09T00:47:26.070Z,102389.27
2023-02-09T00:48:30.377Z,102389.94
2023-02-09T00:49:32.779Z,102388.89
2023-02-09T00:50:35.960Z,102390.80
2023-02-09T00:51:38.093Z,102387.04
2023-02-09T00:52:40.385Z,102378.39
2023-02-09T00:53:42.401Z,102378.95
2023-02-09T00:54:45.165Z,102375.05
2023-02-09T00:55:49.563Z,102380.70
2023-02-09T00:56:52.242Z,102379.34
2023-02-09T00:57:54.477Z,102375.66
2023-02-09T00:58:57.553Z,102366.81
2023-02-09T01:00:00.721Z,102376.27
2023-02-09T01:01:03.973Z,102376.27
2023-02-09T01:02:06.574Z,102373.05
2023-02-09T01:03:08.886Z,102372.37
2023-02-09T01:04:11.504Z,102371.78
2023-02-09T01:05:13.886Z,102371.78
2023-02-09T01:06:16.419Z,102377.41
2023-02-09T01:07:18.887Z,102374.70
2023-02-09T01:08:20.961Z,102378.61
2023-02-09T01:09:23.488Z,102367.78
2023-02-09T01:10:25.785Z,102372.16
2023-02-09T01:11:29.580Z,102379.00
2023-02-09T01:12:31.808Z,102372.72
2023-02-09T01:13:34.376Z,102369.99
2023-02-09T01:14:39.023Z,102376.52
2023-02-09T01:15:41.195Z,102372.39
2023-02-09T01:16:44.291Z,102365.19
2023-02-09T01:17:46.767Z,102371.50
2023-02-09T01:18:49.359Z,102371.98
2023-02-09T01:19:52.771Z,102376.38
2023-02-09T01:20:55.222Z,102368.76
2023-02-09T01:21:57.644Z,102367.69
2023-02-09T01:22:59.648Z,102373.26
2023-02-09T01:24:01.780Z,102367.12
2023-02-09T01:25:06.055Z,102372.02
2023-02-09T01:26:10.263Z,102367.81
2023-02-09T01:27:12.226Z,102362.13
2023-02-09T01:28:14.563Z,102365.73
2023-02-09T01:29:19.190Z,102373.05
2023-02-09T01:30:21.546Z,102365.61
2023-02-09T01:31:30.251Z,102364.66
2023-02-09T01:32:34.304Z,102364.61
2023-02-09T01:33:36.683Z,102367.38
2023-02-09T01:34:38.876Z,102364.73
2023-02-09T01:35:40.923Z,102359.58
2023-02-09T01:36:44.173Z,102365.13
2023-02-09T01:37:46.566Z,102360.44
2023-02-09T01:38:50.514Z,102366.02
2023-02-09T01:39:52.622Z,102353.83
2023-02-09T01:40:55.022Z,102355.76
2023-02-09T01:41:57.347Z,102345.83
2023-02-09T01:42:59.719Z,102349.13
2023-02-09T01:44:08.123Z,102346.59
2023-02-09T01:45:23.431Z,102351.48
2023-02-09T01:46:29.263Z,102345.34
2023-02-09T01:47:34.646Z,102354.98
2023-02-09T01:48:36.894Z,102350.30
2023-02-09T01:49:39.066Z,102353.44
2023-02-09T01:50:44.565Z,102354.59
2023-02-09T01:51:50.587Z,102356.83
2023-02-09T01:52:54.815Z,102347.97
2023-02-09T01:53:57.786Z,102356.65
2023-02-09T01:55:09.865Z,102347.38
2023-02-09T01:57:29.103Z,102349.78
2023-02-09T01:58:32.694Z,102346.49
2023-02-09T01:59:38.124Z,102351.08
2023-02-09T02:00:42.971Z,102344.94
2023-02-09T02:01:45.851Z,102339.20
2023-02-09T02:02:59.350Z,102340.97
2023-02-09T02:04:02.495Z,102330.42
2023-02-09T02:05:07.691Z,102332.13
2023-02-09T02:06:13.652Z,102329.41
2023-02-09T02:07:19.607Z,102331.70
2023-02-09T02:08:39.956Z,102329.72
2023-02-09T02:09:42.699Z,102329.20
2023-02-09T02:10:45.790Z,102325.56
2023-02-09T02:11:49.668Z,102327.44
2023-02-09T02:12:54.028Z,102323.17
2023-02-09T02:13:57.182Z,102330.20
2023-02-09T02:14:59.282Z,102327.64
2023-02-09T02:16:08.235Z,102333.34
2023-02-09T02:17:33.960Z,102340.97
2023-02-09T02:19:02.504Z,102337.52
2023-02-09T02:20:30.029Z,102332.92
2023-02-09T02:21:54.048Z,102335.09
2023-02-09T02:23:22.253Z,102339.11
2023-02-09T02:24:51.085Z,102332.20
2023-02-09T02:26:11.668Z,102335.88
2023-02-09T02:27:29.820Z,102328.86
2023-02-09T02:28:38.640Z,102331.20
2023-02-09T02:30:04.078Z,102321.76
2023-02-09T02:31:33.239Z,102324.02
2023-02-09T02:32:51.294Z,102326.83
2023-02-09T02:34:27.295Z,102327.09
2023-02-09T02:35:45.167Z,102321.64
2023-02-09T02:37:03.133Z,102318.52
2023-02-09T02:38:08.965Z,102323.20
2023-02-09T02:39:17.536Z,102319.88
2023-02-09T02:40:45.664Z,102318.72
2023-02-09T02:43:47.695Z,102328.25
2023-02-09T02:44:56.436Z,102319.70
2023-02-09T02:46:02.585Z,102319.27
2023-02-09T02:47:08.631Z,102328.55
2023-02-09T02:48:26.905Z,102324.14
2023-02-09T02:49:32.878Z,102323.87
2023-02-09T02:50:38.793Z,102319.88
2023-02-09T02:51:44.457Z,102324.48
2023-02-09T02:52:50.855Z,102312.52
2023-02-09T02:53:56.554Z,102319.14
2023-02-09T02:55:11.531Z,102316.39
2023-02-09T02:56:39.076Z,102315.88
2023-02-09T02:57:44.776Z,102320.09
2023-02-09T02:58:50.561Z,102315.61
2023-02-09T02:59:56.675Z,102314.02
2023-02-09T03:01:02.337Z,102313.56
2023-02-09T03:02:18.662Z,102317.16
2023-02-09T03:03:27.324Z,102316.42
2023-02-09T03:04:32.182Z,102316.99
2023-02-09T03:05:34.662Z,102322.83
2023-02-09T03:06:37.825Z,102313.77
2023-02-09T03:07:40.825Z,102311.53
2023-02-09T03:08:49.803Z,102310.54
2023-02-09T03:09:55.704Z,102310.03
2023-02-09T03:10:58.621Z,102312.94
2023-02-09T03:12:07.084Z,102303.30
2023-02-09T03:13:33.541Z,102303.13
2023-02-09T03:14:44.972Z,102306.66
2023-02-09T03:15:50.734Z,102299.05
2023-02-09T03:17:15.133Z,102298.47
2023-02-09T03:18:32.609Z,102304.77
2023-02-09T03:19:50.255Z,102297.67
2023-02-09T03:21:08.190Z,102305.64
2023-02-09T03:22:30.993Z,102301.66
2023-02-09T03:23:39.479Z,102307.80
2023-02-09T03:25:09.691Z,102291.25
2023-02-09T03:26:16.195Z,102296.70
2023-02-09T03:27:24.855Z,102285.02
2023-02-09T03:28:31.815Z,102287.94
2023-02-09T03:29:36.954Z,102285.56
2023-02-09T03:30:41.784Z,102286.27
2023-02-09T03:31:45.868Z,102291.47
2023-02-09T03:32:48.403Z,102289.32
2023-02-09T03:33:50.907Z,102296.14
2023-02-09T03:34:55.028Z,102285.41
2023-02-09T03:35:59.869Z,102289.88
2023-02-09T03:37:02.206Z,102291.25
2023-02-09T03:38:06.109Z,102292.41
2023-02-09T03:39:08.354Z,102299.22
2023-02-09T03:40:11.018Z,102293.00
2023-02-09T03:41:13.090Z,102290.84
2023-02-09T03:42:15.433Z,102288.99
2023-02-09T03:43:17.466Z,102295.70
2023-02-09T03:44:25.881Z,102290.23
2023-02-09T03:45:28.158Z,102290.56
2023-02-09T03:46:32.413Z,102291.62
2023-02-09T03:47:34.667Z,102282.08
2023-02-09T03:48:37.165Z,102296.30
2023-02-09T03:49:40.896Z,102289.62
2023-02-09T03:50:43.827Z,102292.78
2023-02-09T03:51:46.500Z,102286.56
2023-02-09T03:52:50.170Z,102284.93
2023-02-09T03:53:52.524Z,102293.31
2023-02-09T03:54:54.648Z,102286.48
2023-02-09T03:55:56.599Z,102294.56
2023-02-09T03:57:00.928Z,102291.86
2023-02-09T03:58:03.794Z,102288.93
2023-02-09T03:59:06.299Z,102293.45
2023-02-09T04:00:11.572Z,102284.48
2023-02-09T04:01:17.336Z,102288.64
2023-02-09T04:02:19.601Z,102291.75
2023-02-09T04:03:21.702Z,102289.09
2023-02-09T04:04:25.205Z,102287.98
2023-02-09T04:05:27.551Z,102289.91
2023-02-09T04:06:32.644Z,102296.25
2023-02-09T04:07:35.207Z,102285.56
2023-02-09T04:08:37.789Z,102287.69
2023-02-09T04:09:39.927Z,102285.92
2023-02-09T04:10:42.249Z,102285.53
2023-02-09T04:11:44.617Z,102290.04
2023-02-09T04:12:47.730Z,102281.11
2023-02-09T04:13:50.046Z,102282.75
2023-02-09T04:14:52.070Z,102272.20
2023-02-09T04:15:54.382Z,102277.87
2023-02-09T04:16:56.661Z,102271.83
2023-02-09T04:17:58.883Z,102276.33
2023-02-09T04:19:01.173Z,102275.01
2023-02-09T04:20:05.182Z,102283.80
2023-02-09T04:21:07.580Z,102276.10
2023-02-09T04:22:10.181Z,102276.36
2023-02-09T04:23:12.684Z,102270.11
2023-02-09T04:24:14.873Z,102272.47
2023-02-09T04:25:17.298Z,102278.12
2023-02-09T04:26:20.866Z,102274.63
2023-02-09T04:27:23.035Z,102267.03
2023-02-09T04:28:25.039Z,102273.13
2023-02-09T04:29:27.494Z,102274.20
2023-02-09T04:30:30.838Z,102271.41
2023-02-09T04:31:35.022Z,102267.97
2023-02-09T04:32:41.573Z,102270.80
2023-02-09T04:33:44.891Z,102267.80
2023-02-09T04:34:47.954Z,102269.12
2023-02-09T04:35:52.126Z,102262.40
2023-02-09T04:36:54.312Z,102267.67
2023-02-09T04:37:56.956Z,102268.06
2023-02-09T04:38:59.038Z,102269.22
2023-02-09T04:40:01.639Z,102268.95
2023-02-09T04:41:04.705Z,102258.52
2023-02-09T04:42:06.658Z,102262.13
2023-02-09T04:43:08.503Z,102260.84
2023-02-09T04:44:10.585Z,102265.61
2023-02-09T04:45:12.822Z,102267.23
2023-02-09T04:46:17.427Z,102257.84
2023-02-09T04:47:20.088Z,102264.28
2023-02-09T04:48:24.099Z,102255.09
2023-02-09T04:49:26.344Z,102260.84
2023-02-09T04:50:28.602Z,102265.44
2023-02-09T04:51:30.803Z,102260.92
2023-02-09T04:52:33.302Z,102264.31
2023-02-09T04:53:35.502Z,102261.96
2023-02-09T04:54:37.368Z,102257.33
2023-02-09T04:55:42.470Z,102262.22
2023-02-09T04:56:44.732Z,102260.41
2023-02-09T04:58:05.103Z,102262.76
2023-02-09T04:59:28.266Z,102258.52
2023-02-09T05:00:30.849Z,102255.55
2023-02-09T05:01:33.298Z,102265.31
2023-02-09T05:02:35.734Z,102257.10
2023-02-09T05:03:37.612Z,102261.00
2023-02-09T05:04:39.719Z,102256.47
2023-02-09T05:05:42.472Z,102258.44
2023-02-09T05:06:45.120Z,102256.30
2023-02-09T05:07:48.013Z,102251.40
2023-02-09T05:08:50.253Z,102255.12
2023-02-09T05:09:52.529Z,102262.41
2023-02-09T05:10:55.689Z,102255.87
2023-02-09T05:11:57.768Z,102255.29
2023-02-09T05:13:00.248Z,102253.68
2023-02-09T05:14:03.625Z,102253.09
2023-02-09T05:15:06.725Z,102255.86
2023-02-09T05:16:13.539Z,102251.30
2023-02-09T05:17:17.493Z,102243.89
2023-02-09T05:18:20.044Z,102242.34
2023-02-09T05:19:22.344Z,102242.33
2023-02-09T05:20:25.771Z,102244.84
2023-02-09T05:21:27.963Z,102248.13
2023-02-09T05:22:30.061Z,102246.23
2023-02-09T05:23:32.347Z,102245.34
2023-02-09T05:24:34.459Z,102249.59
2023-02-09T05:25:38.794Z,102253.02
2023-02-09T05:26:42.421Z,102253.66
2023-02-09T05:27:44.502Z,102254.25
2023-02-09T05:28:46.355Z,102259.98
2023-02-09T05:29:48.305Z,102254.16
2023-02-09T05:30:53.158Z,102256.37
2023-02-09T05:31:55.446Z,102255.02
2023-02-09T05:32:58.805Z,102248.97
2023-02-09T05:34:01.496Z,102246.83
2023-02-09T05:35:03.571Z,102243.72
2023-02-09T05:36:08.571Z,102249.55
2023-02-09T05:37:10.917Z,102248.55
2023-02-09T05:38:13.454Z,102238.44
2023-02-09T05:39:17.079Z,102246.83
2023-02-09T05:40:19.468Z,102242.67
2023-02-09T05:41:40.192Z,102240.23
2023-02-09T05:42:42.874Z,102239.59
2023-02-09T05:43:45.089Z,102251.21
2023-02-09T05:44:49.687Z,102240.97
2023-02-09T05:45:53.203Z,102251.81
2023-02-09T05:46:56.067Z,102241.64
2023-02-09T05:47:58.180Z,102247.33
2023-02-09T05:49:00.437Z,102251.03
2023-02-09T05:50:03.488Z,102245.78
2023-02-09T05:51:07.014Z,102249.14
2023-02-09T05:52:10.695Z,102241.34
2023-02-09T05:53:14.428Z,102250.32
2023-02-09T05:54:17.785Z,102243.59
2023-02-09T05:55:19.792Z,102245.34
2023-02-09T05:56:22.261Z,102247.20
2023-02-09T05:57:24.335Z,102249.34
2023-02-09T05:58:27.267Z,102245.94
2023-02-09T05:59:29.859Z,102253.45
2023-02-09T06:00:32.048Z,102244.52
2023-02-09T06:01:34.993Z,102242.64
2023-02-09T06:02:37.259Z,102246.05
2023-02-09T06:03:39.543Z,102243.39
2023-02-09T06:04:41.777Z,102243.19
2023-02-09T06:05:45.303Z,102247.23
2023-02-09T06:06:47.922Z,102244.78
2023-02-09T06:07:52.167Z,102252.98
2023-02-09T06:08:54.313Z,102250.05
2023-02-09T06:09:56.381Z,102252.86
2023-02-09T06:10:59.318Z,102243.02
2023-02-09T06:12:01.630Z,102242.81
2023-02-09T06:13:03.757Z,102237.64
2023-02-09T06:14:07.194Z,102246.70
2023-02-09T06:15:10.379Z,102254.09
2023-02-09T06:16:12.786Z,102257.33
2023-02-09T06:17:15.365Z,102251.10
2023-02-09T06:18:18.455Z,102247.80
2023-02-09T06:19:21.057Z,102247.11
2023-02-09T06:20:23.284Z,102251.87
2023-02-09T06:21:26.575Z,102252.27
2023-02-09T06:22:30.323Z,102261.23
2023-02-09T06:23:35.147Z,102255.19
2023-02-09T06:24:36.859Z,102255.39
2023-02-09T06:25:40.192Z,102263.16
2023-02-09T06:26:43.181Z,102250.45
2023-02-09T06:27:46.286Z,102255.66
2023-02-09T06:28:48.556Z,102256.80
2023-02-09T06:29:50.753Z,102252.09
2023-02-09T06:30:54.008Z,102250.20
2023-02-09T06:31:56.543Z,102250.56
2023-02-09T06:32:58.663Z,102250.92
2023-02-09T06:34:02.983Z,102250.22
2023-02-09T06:35:06.256Z,102249.02
2023-02-09T06:36:10.029Z,102253.80
2023-02-09T06:37:12.307Z,102261.41
2023-02-09T06:38:14.421Z,102246.63
2023-02-09T06:39:16.308Z,102252.09
2023-02-09T06:40:18.545Z,102252.09
2023-02-09T06:41:20.784Z,102256.00
2023-02-09T06:42:22.752Z,102250.34
2023-02-09T06:43:25.195Z,102249.31
2023-02-09T06:44:27.513Z,102259.77
2023-02-09T06:45:29.734Z,102252.19
2023-02-09T06:46:31.928Z,102258.83
2023-02-09T06:47:34.948Z,102249.20
2023-02-09T06:48:38.533Z,102249.20
2023-02-09T06:49:41.684Z,102246.22
2023-02-09T06:50:45.044Z,102244.99
2023-02-09T06:51:47.760Z,102249.56
2023-02-09T06:52:49.934Z,102244.63
2023-02-09T06:53:52.174Z,102248.48
2023-02-09T06:54:54.967Z,102249.34
2023-02-09T06:56:01.071Z,102247.23
2023-02-09T06:57:03.542Z,102240.28
2023-02-09T06:58:05.861Z,102239.81
2023-02-09T06:59:08.403Z,102246.19
2023-02-09T07:00:12.649Z,102248.14
2023-02-09T07:01:15.838Z,102239.28
2023-02-09T07:02:18.354Z,102243.58
2023-02-09T07:03:22.318Z,102243.23
2023-02-09T07:04:24.703Z,102246.23
2023-02-09T07:05:27.998Z,102248.30
2023-02-09T07:06:30.786Z,102248.55
2023-02-09T07:07:32.915Z,102250.75
2023-02-09T07:08:36.231Z,102250.31
2023-02-09T07:09:38.358Z,102259.50
2023-02-09T07:10:40.887Z,102250.85
2023-02-09T07:11:44.335Z,102258.61
2023-02-09T07:12:46.507Z,102259.61
2023-02-09T07:13:49.320Z,102262.08
2023-02-09T07:14:51.945Z,102260.41
2023-02-09T07:15:57.133Z,102265.02
2023-02-09T07:16:59.898Z,102250.83
2023-02-09T07:18:01.893Z,102253.65
2023-02-09T07:19:03.939Z,102258.13
2023-02-09T07:20:08.632Z,102257.23
2023-02-09T07:21:17.388Z,102253.56
2023-02-09T07:22:19.583Z,102256.10
2023-02-09T07:23:22.475Z,102255.42
2023-02-09T07:24:24.843Z,102255.42
2023-02-09T07:25:27.745Z,102256.94
2023-02-09T07:26:30.439Z,102250.45
2023-02-09T07:27:32.902Z,102257.00
2023-02-09T07:28:37.153Z,102255.34
2023-02-09T07:29:39.290Z,102261.89
2023-02-09T07:30:41.550Z,102260.73
2023-02-09T07:31:43.891Z,102266.16
2023-02-09T07:32:46.685Z,102254.56
2023-02-09T07:33:48.789Z,102254.55
2023-02-09T07:34:50.854Z,102248.14
2023-02-09T07:35:53.090Z,102248.14
2023-02-09T07:36:55.478Z,102257.84
2023-02-09T07:37:58.608Z,102251.98
2023-02-09T07:39:00.997Z,102254.50
2023-02-09T07:40:04.237Z,102249.22
2023-02-09T07:41:08.977Z,102247.62
2023-02-09T07:42:11.003Z,102246.46
2023-02-09T07:43:28.043Z,102248.81
2023-02-09T07:44:30.860Z,102251.44
2023-02-09T07:45:33.430Z,102239.36
2023-02-09T07:46:37.310Z,102247.01
2023-02-09T07:47:39.571Z,102240.50
2023-02-09T07:48:42.154Z,102245.10
2023-02-09T07:49:44.575Z,102229.71
2023-02-09T07:50:50.681Z,102237.95
2023-02-09T07:51:53.690Z,102244.28
2023-02-09T07:52:56.636Z,102238.55
2023-02-09T07:54:00.973Z,102239.73
2023-02-09T07:55:04.230Z,102239.18
2023-02-09T07:56:08.018Z,102246.12
2023-02-09T07:57:13.804Z,102241.81
2023-02-09T07:58:18.921Z,102236.47
2023-02-09T07:59:21.285Z,102238.88
2023-02-09T08:00:24.952Z,102229.94
2023-02-09T08:01:27.070Z,102237.45
2023-02-09T08:02:33.054Z,102230.00
2023-02-09T08:03:37.465Z,102233.97
2023-02-09T08:04:39.967Z,102228.25
2023-02-09T08:05:46.165Z,102227.47
2023-02-09T08:06:48.517Z,102232.95
2023-02-09T08:07:50.748Z,102231.70
2023-02-09T08:08:53.337Z,102223.90
2023-02-09T08:09:56.397Z,102228.12
2023-02-09T08:11:01.324Z,102232.92
2023-02-09T08:12:08.240Z,102236.77
2023-02-09T08:13:11.659Z,102238.71
2023-02-09T08:14:17.618Z,102236.48
2023-02-09T08:15:22.269Z,102241.58
2023-02-09T08:16:29.347Z,102239.39
2023-02-09T08:17:32.217Z,102233.98
2023-02-09T08:18:39.827Z,102235.88
2023-02-09T08:19:42.833Z,102224.41
2023-02-09T08:20:47.956Z,102228.95
2023-02-09T08:21:51.365Z,102236.79
2023-02-09T08:22:56.104Z,102228.35
2023-02-09T08:24:00.687Z,102229.97
2023-02-09T08:25:04.631Z,102224.05
2023-02-09T08:26:10.492Z,102225.18
2023-02-09T08:27:13.264Z,102227.23
2023-02-09T08:28:16.417Z,102219.78
2023-02-09T08:29:23.809Z,102226.73
2023-02-09T08:30:26.309Z,102222.16
2023-02-09T08:31:28.708Z,102217.34
2023-02-09T08:32:31.333Z,102224.71
2023-02-09T08:33:33.919Z,102227.92
2023-02-09T08:34:36.997Z,102228.12
2023-02-09T08:35:39.339Z,102221.24
2023-02-09T08:36:41.761Z,102214.78
2023-02-09T08:37:45.113Z,102224.48
2023-02-09T08:38:50.123Z,102222.23
2023-02-09T08:39:52.397Z,102220.60
2023-02-09T08:40:55.238Z,102214.28
2023-02-09T08:41:57.247Z,102221.27
2023-02-09T08:42:59.849Z,102217.86
2023-02-09T08:44:03.418Z,102220.68
2023-02-09T08:45:08.422Z,102230.11
2023-02-09T08:46:14.268Z,102221.73
2023-02-09T08:47:18.767Z,102218.92
2023-02-09T08:48:22.635Z,102218.49
2023-02-09T08:49:27.649Z,102219.68
2023-02-09T08:50:30.826Z,102223.90
2023-02-09T08:51:34.397Z,102210.92
2023-02-09T08:52:36.864Z,102223.09
2023-02-09T08:53:40.287Z,102218.16
2023-02-09T08:54:43.845Z,102216.34
2023-02-09T08:55:46.615Z,102224.92
2023-02-09T08:56:49.727Z,102212.33
2023-02-09T08:57:52.486Z,102216.75
2023-02-09T08:58:55.302Z,102211.34
2023-02-09T08:59:58.472Z,102215.31
2023-02-09T09:01:01.658Z,102208.19
2023-02-09T09:02:04.041Z,102217.20
2023-02-09T09:03:08.573Z,102210.92
2023-02-09T09:04:19.957Z,102217.14
2023-02-09T09:05:22.892Z,102210.33
2023-02-09T09:06:26.951Z,102212.75
2023-02-09T09:07:30.229Z,102213.65
2023-02-09T09:08:37.380Z,102204.51
2023-02-09T09:09:43.777Z,102208.88
2023-02-09T09:10:49.497Z,102202.23
2023-02-09T09:11:53.216Z,102205.47
2023-02-09T09:12:56.458Z,102194.30
2023-02-09T09:13:59.604Z,102196.86
2023-02-09T09:15:03.280Z,102194.22
2023-02-09T09:16:06.784Z,102185.52
2023-02-09T09:17:09.255Z,102191.91
2023-02-09T09:18:12.732Z,102194.25
2023-02-09T09:19:16.347Z,102193.42
2023-02-09T09:20:20.325Z,102184.08
2023-02-09T09:21:23.828Z,102177.11
2023-02-09T09:22:33.570Z,102180.27
2023-02-09T09:23:38.936Z,102176.38
2023-02-09T09:24:41.765Z,102181.07
2023-02-09T09:25:45.215Z,102171.97
2023-02-09T09:26:48.718Z,102169.25
2023-02-09T09:27:51.464Z,102170.61
2023-02-09T09:28:57.953Z,102164.31
2023-02-09T09:30:05.532Z,102158.15
2023-02-09T09:31:14.943Z,102167.64
2023-02-09T09:32:18.381Z,102167.12
2023-02-09T09:33:21.566Z,102158.45
2023-02-09T09:34:24.206Z,102155.28
2023-02-09T09:35:27.497Z,102155.22
2023-02-09T09:36:31.326Z,102145.59
2023-02-09T09:37:35.287Z,102145.91
2023-02-09T09:38:39.930Z,102147.34
2023-02-09T09:40:00.334Z,102147.36
2023-02-09T09:41:09.851Z,102141.78
2023-02-09T09:42:36.607Z,102147.36
2023-02-09T09:43:41.774Z,102134.06
2023-02-09T09:44:47.498Z,102129.55
2023-02-09T09:45:52.603Z,102127.69
2023-02-09T09:47:07.952Z,102134.48
2023-02-09T09:48:27.348Z,102129.50
2023-02-09T09:53:09.010Z,102125.66
2023-02-09T09:54:21.198Z,102121.19
2023-02-09T09:55:26.817Z,102118.07
2023-02-09T09:56:31.245Z,102125.55
2023-02-09T09:57:36.912Z,102118.95
2023-02-09T09:58:42.321Z,102124.23
2023-02-09T09:59:45.983Z,102113.02
2023-02-09T10:00:50.642Z,102116.52
2023-02-09T10:01:55.868Z,102120.03
2023-02-09T10:03:00.341Z,102115.03
2023-02-09T10:04:09.019Z,102114.86
2023-02-09T10:05:28.459Z,102116.80
2023-02-09T10:06:33.679Z,102111.06
2023-02-09T10:07:39.889Z,102110.67
2023-02-09T10:08:48.686Z,102106.45
2023-02-09T10:09:57.323Z,102113.67
2023-02-09T10:11:12.407Z,102102.19
2023-02-09T10:12:41.291Z,102106.31
2023-02-09T10:13:50.929Z,102114.32
2023-02-09T10:14:53.138Z,102099.92
2023-02-09T10:15:57.089Z,102101.30
2023-02-09T10:16:59.780Z,102095.14
2023-02-09T10:18:03.174Z,102097.84
2023-02-09T10:19:20.757Z,102099.69
2023-02-09T10:20:53.632Z,102097.08
2023-02-09T10:21:56.908Z,102094.70
2023-02-09T10:22:59.507Z,102095.52
2023-02-09T10:24:09.424Z,102086.34
2023-02-09T10:27:16.301Z,102080.75
2023-02-09T10:28:28.932Z,102081.81
2023-02-09T10:29:33.034Z,102073.89
2023-02-09T10:30:35.570Z,102076.11
2023-02-09T10:31:43.856Z,102077.72
2023-02-09T10:32:46.399Z,102074.50
2023-02-09T10:35:04.927Z,102072.05
2023-02-09T10:36:24.158Z,102073.73
2023-02-09T10:37:39.414Z,102068.97
2023-02-09T10:38:42.597Z,102064.42
2023-02-09T10:39:48.538Z,102067.93
2023-02-09T10:40:51.528Z,102065.59
2023-02-09T10:41:56.815Z,102056.73
2023-02-09T10:43:02.354Z,102057.73
2023-02-09T10:44:17.726Z,102051.31
2023-02-09T10:45:29.924Z,102059.59
2023-02-09T10:46:33.132Z,102062.72
2023-02-09T10:47:35.239Z,102055.20
2023-02-09T10:48:43.166Z,102047.97
2023-02-09T10:50:07.644Z,102055.30
2023-02-09T10:52:36.038Z,102046.12
2023-02-09T10:53:57.191Z,102050.41
2023-02-09T10:57:30.382Z,102042.88
2023-02-09T10:58:35.789Z,102044.14
2023-02-09T10:59:40.699Z,102039.52
2023-02-09T11:01:09.505Z,102041.58
2023-02-09T11:02:32.731Z,102035.83
2023-02-09T11:03:37.225Z,102055.52
2023-02-09T11:04:40.865Z,102038.67
2023-02-09T11:05:47.141Z,102034.05
2023-02-09T11:06:58.501Z,102031.44
2023-02-09T11:08:22.796Z,102028.80
2023-02-09T11:09:36.750Z,102031.84
2023-02-09T11:10:43.485Z,102035.20
2023-02-09T11:11:45.945Z,102026.27
2023-02-09T11:12:49.192Z,102037.72
2023-02-09T11:13:51.434Z,102025.34
2023-02-09T11:14:54.487Z,102034.05
2023-02-09T11:16:00.291Z,102027.81
2023-02-09T11:17:18.568Z,102026.95
2023-02-09T11:18:29.036Z,102030.45
2023-02-09T11:20:01.845Z,102032.47
2023-02-09T11:21:43.991Z,102023.63
2023-02-09T11:22:56.203Z,102030.80
2023-02-09T11:24:08.395Z,102014.62
2023-02-09T11:25:38.873Z,102006.05
2023-02-09T11:26:45.231Z,102003.55
2023-02-09T11:28:08.400Z,102003.45
2023-02-09T11:29:17.212Z,102003.92
2023-02-09T11:30:42.790Z,102000.19
2023-02-09T11:31:55.220Z,102006.20
2023-02-09T11:33:08.985Z,102004.06
2023-02-09T11:34:35.602Z,101992.21
2023-02-09T11:35:53.643Z,102000.31
2023-02-09T11:37:11.954Z,102006.73
2023-02-09T11:38:17.598Z,101991.70
2023-02-09T11:39:23.405Z,101993.84
2023-02-09T11:40:42.924Z,101989.86
2023-02-09T11:42:07.313Z,101998.81
2023-02-09T11:43:34.781Z,101993.70
2023-02-09T11:44:40.629Z,101985.95
2023-02-09T11:45:49.611Z,101987.39
2023-02-09T11:46:56.663Z,101974.00
2023-02-09T11:48:14.178Z,101986.55
2023-02-09T11:49:21.102Z,101970.08
2023-02-09T11:50:43.906Z,101979.64
2023-02-09T11:51:51.051Z,101970.59
2023-02-09T11:52:57.090Z,101970.31
2023-02-09T11:54:27.573Z,101976.37
2023-02-09T11:55:43.760Z,101984.66
2023-02-09T11:56:53.758Z,101971.48
2023-02-09T11:58:03.475Z,101954.23
2023-02-09T11:59:23.940Z,101956.70
2023-02-09T12:00:30.914Z,101966.05
2023-02-09T12:02:09.943Z,101957.98
2023-02-09T12:03:13.340Z,101959.61
2023-02-09T12:04:20.027Z,101964.59
2023-02-09T12:05:25.775Z,101960.89
2023-02-09T12:06:42.126Z,101957.16
2023-02-09T12:10:00.236Z,101948.05
2023-02-09T12:11:21.555Z,101960.52
2023-02-09T12:12:42.415Z,101953.78
2023-02-09T12:13:53.478Z,101960.20
2023-02-09T12:15:08.057Z,101959.35
2023-02-09T12:16:18.928Z,101965.16
2023-02-09T12:17:28.385Z,101955.77
2023-02-09T12:18:34.745Z,101957.64
2023-02-09T12:19:41.928Z,101956.50
2023-02-09T12:21:00.760Z,101958.64
2023-02-09T12:22:33.699Z,101957.70
2023-02-09T12:23:43.022Z,101959.80
2023-02-09T12:24:49.320Z,101960.23
2023-02-09T12:26:01.406Z,101962.20
2023-02-09T12:27:07.346Z,101953.91
2023-02-09T12:28:16.670Z,101953.31
2023-02-09T12:29:31.861Z,101955.13
2023-02-09T12:30:45.303Z,101952.20
2023-02-09T12:32:08.985Z,101948.08
2023-02-09T12:33:28.142Z,101951.28
2023-02-09T12:34:52.191Z,101936.83
2023-02-09T12:36:13.959Z,101945.95
2023-02-09T12:37:27.557Z,101945.52
2023-02-09T12:38:56.461Z,101942.03
2023-02-09T12:40:17.159Z,101945.70
2023-02-09T12:41:26.861Z,101949.97
2023-02-09T12:42:41.634Z,101939.75
2023-02-09T12:43:44.928Z,101933.42
2023-02-09T12:44:55.632Z,101940.40
2023-02-09T12:46:29.663Z,101937.12
2023-02-09T12:47:42.597Z,101949.97
2023-02-09T12:48:55.531Z,101944.17
2023-02-09T12:50:04.452Z,101929.90
2023-02-09T12:51:10.884Z,101937.02
2023-02-09T12:52:16.720Z,101930.80
2023-02-09T12:53:27.107Z,101932.97